FDX421 LROP-LRTR
Flight info
| Callsign | FDX421 |
|---|---|
| Flight time | 0h 46m |
| Altitude | 30000 |
| Route | SOKRU DCT OXDOC DCT NEKUL |
| Aircraft | B738/M-SDE2E3FGHIRWXY/LB1 |
Departure
| Time | 2026-05-04 09:01 |
|---|---|
| Airport | Bucharest Henri Coandă International Airport (LROP) |
Arrival
| Time | 2026-05-04 09:47 |
|---|---|
| Airport | Timișoara Traian Vuia International Airport (LRTR) |
| Time | Latitude | Longitude | Altitude | Speed | Heading |
|---|---|---|---|---|---|
| 2026-05-04 08:40 | 44.56975 | 26.10511 | 321 ft | 0 kts | 174° |
| 2026-05-04 08:46 | 44.57047 | 26.10501 | 319 ft | 2 kts | 194° |
| 2026-05-04 08:46 | 44.57061 | 26.10510 | 319 ft | 2 kts | 227° |
| 2026-05-04 08:46 | 44.57069 | 26.10528 | 321 ft | 2 kts | 263° |
| 2026-05-04 08:46 | 44.57067 | 26.10507 | 319 ft | 2 kts | 264° |
| 2026-05-04 08:47 | 44.57067 | 26.10506 | 319 ft | 0 kts | 264° |
| 2026-05-04 08:50 | 44.57051 | 26.10299 | 321 ft | 11 kts | 263° |
| 2026-05-04 08:50 | 44.57042 | 26.10186 | 322 ft | 12 kts | 263° |
| 2026-05-04 08:51 | 44.57033 | 26.10070 | 321 ft | 12 kts | 263° |
| 2026-05-04 08:51 | 44.57025 | 26.09958 | 321 ft | 11 kts | 276° |
| 2026-05-04 08:51 | 44.57064 | 26.09901 | 321 ft | 9 kts | 357° |
| 2026-05-04 08:51 | 44.57122 | 26.09898 | 321 ft | 8 kts | 353° |
| 2026-05-04 08:52 | 44.57175 | 26.09889 | 321 ft | 8 kts | 353° |
| 2026-05-04 08:52 | 44.57225 | 26.09880 | 319 ft | 7 kts | 353° |
| 2026-05-04 08:52 | 44.57271 | 26.09874 | 320 ft | 6 kts | 354° |
| 2026-05-04 08:52 | 44.57315 | 26.09868 | 321 ft | 7 kts | 354° |
| 2026-05-04 08:53 | 44.57379 | 26.09859 | 321 ft | 11 kts | 354° |
| 2026-05-04 08:54 | 44.57663 | 26.10755 | 321 ft | 24 kts | 84° |
| 2026-05-04 08:55 | 44.57681 | 26.10988 | 321 ft | 24 kts | 84° |
| 2026-05-04 08:55 | 44.57699 | 26.11224 | 319 ft | 25 kts | 84° |
| 2026-05-04 08:55 | 44.57714 | 26.11455 | 321 ft | 23 kts | 84° |
| 2026-05-04 08:55 | 44.57732 | 26.11675 | 321 ft | 22 kts | 83° |
| 2026-05-04 08:57 | 44.57884 | 26.12861 | 321 ft | 11 kts | 329° |
| 2026-05-04 09:01 | 44.58803 | 25.94152 | 7031 ft | 259 kts | 339° |
| 2026-05-04 09:01 | 44.60474 | 25.93231 | 7967 ft | 259 kts | 346° |
| 2026-05-04 09:01 | 44.62185 | 25.92425 | 8910 ft | 260 kts | 347° |
| 2026-05-04 09:01 | 44.63909 | 25.91623 | 9844 ft | 263 kts | 347° |
| 2026-05-04 09:02 | 44.65664 | 25.90792 | 10542 ft | 273 kts | 346° |
| 2026-05-04 09:02 | 44.67559 | 25.89882 | 10746 ft | 301 kts | 346° |
| 2026-05-04 09:02 | 44.69613 | 25.88876 | 11067 ft | 322 kts | 345° |
| 2026-05-04 09:02 | 44.71755 | 25.87807 | 11728 ft | 331 kts | 343° |
| 2026-05-04 09:03 | 44.73813 | 25.86224 | 12491 ft | 344 kts | 329° |
| 2026-05-04 09:03 | 44.75616 | 25.83934 | 13259 ft | 356 kts | 316° |
| 2026-05-04 09:03 | 44.77097 | 25.81071 | 13979 ft | 367 kts | 309° |
| 2026-05-04 09:03 | 44.78485 | 25.78087 | 14676 ft | 370 kts | 307° |
| 2026-05-04 09:04 | 44.79878 | 25.75025 | 15472 ft | 372 kts | 307° |
| 2026-05-04 09:04 | 44.81281 | 25.71946 | 16229 ft | 374 kts | 307° |
| 2026-05-04 09:04 | 44.82694 | 25.68866 | 16993 ft | 376 kts | 307° |
| 2026-05-04 09:04 | 44.84125 | 25.65767 | 17710 ft | 379 kts | 307° |
| 2026-05-04 09:05 | 44.85578 | 25.62634 | 18418 ft | 382 kts | 306° |
| 2026-05-04 09:05 | 44.87043 | 25.59482 | 19005 ft | 386 kts | 306° |
| 2026-05-04 09:05 | 44.88524 | 25.56295 | 19544 ft | 392 kts | 306° |
| 2026-05-04 09:05 | 44.90027 | 25.53059 | 20096 ft | 396 kts | 306° |
| 2026-05-04 09:06 | 44.91524 | 25.49830 | 20651 ft | 400 kts | 305° |
| 2026-05-04 09:07 | 45.01387 | 25.25176 | 24262 ft | 427 kts | 289° |
| 2026-05-04 09:08 | 45.02370 | 25.21189 | 24679 ft | 430 kts | 289° |
| 2026-05-04 09:08 | 45.03352 | 25.17172 | 25080 ft | 433 kts | 288° |
| 2026-05-04 09:08 | 45.04223 | 25.13122 | 25498 ft | 436 kts | 286° |
| 2026-05-04 09:08 | 45.05045 | 25.08978 | 25936 ft | 438 kts | 285° |
| 2026-05-04 09:09 | 45.05850 | 25.04797 | 26346 ft | 441 kts | 284° |
| 2026-05-04 09:09 | 45.06662 | 25.00562 | 26731 ft | 445 kts | 284° |
| 2026-05-04 09:09 | 45.07471 | 24.96370 | 27130 ft | 448 kts | 284° |
| 2026-05-04 09:09 | 45.08300 | 24.92109 | 27493 ft | 451 kts | 284° |
| 2026-05-04 09:10 | 45.09136 | 24.87832 | 27939 ft | 451 kts | 284° |
| 2026-05-04 09:10 | 45.09977 | 24.83553 | 28502 ft | 450 kts | 284° |
| 2026-05-04 09:10 | 45.10814 | 24.79292 | 29085 ft | 448 kts | 284° |
| 2026-05-04 09:10 | 45.11649 | 24.75040 | 29594 ft | 447 kts | 284° |
| 2026-05-04 09:11 | 45.12471 | 24.70841 | 30041 ft | 448 kts | 284° |
| 2026-05-04 09:11 | 45.14141 | 24.62288 | 30065 ft | 448 kts | 284° |
| 2026-05-04 09:12 | 45.15793 | 24.53782 | 30088 ft | 447 kts | 284° |
| 2026-05-04 09:14 | 45.22330 | 24.19748 | 30101 ft | 448 kts | 286° |
| 2026-05-04 09:14 | 45.23936 | 24.11287 | 30102 ft | 440 kts | 286° |
| 2026-05-04 09:15 | 45.25525 | 24.02888 | 30125 ft | 445 kts | 287° |
| 2026-05-04 09:15 | 45.27144 | 23.94301 | 30118 ft | 451 kts | 287° |
| 2026-05-04 09:17 | 45.34129 | 23.56760 | 29920 ft | 475 kts | 288° |
| 2026-05-04 09:18 | 45.34968 | 23.52200 | 29716 ft | 476 kts | 288° |
| 2026-05-04 09:18 | 45.35787 | 23.47707 | 29466 ft | 462 kts | 289° |
| 2026-05-04 09:18 | 45.36574 | 23.43358 | 29501 ft | 443 kts | 289° |
| 2026-05-04 09:18 | 45.37330 | 23.39186 | 29508 ft | 427 kts | 289° |
| 2026-05-04 09:19 | 45.38051 | 23.35209 | 29492 ft | 413 kts | 289° |
| 2026-05-04 09:19 | 45.38762 | 23.31295 | 29498 ft | 408 kts | 290° |
| 2026-05-04 09:19 | 45.39487 | 23.27337 | 29503 ft | 419 kts | 290° |
| 2026-05-04 09:19 | 45.40218 | 23.23281 | 29632 ft | 427 kts | 289° |
| 2026-05-04 09:20 | 45.41738 | 23.14881 | 29828 ft | 446 kts | 289° |
| 2026-05-04 09:20 | 45.43284 | 23.06316 | 29186 ft | 442 kts | 289° |
| 2026-05-04 09:21 | 45.44034 | 23.02123 | 28454 ft | 443 kts | 289° |
| 2026-05-04 09:21 | 45.44789 | 22.97892 | 28087 ft | 436 kts | 289° |
| 2026-05-04 09:21 | 45.45524 | 22.93743 | 27811 ft | 427 kts | 289° |
| 2026-05-04 09:21 | 45.46243 | 22.89682 | 27529 ft | 418 kts | 289° |
| 2026-05-04 09:22 | 45.46948 | 22.85700 | 27262 ft | 410 kts | 289° |
| 2026-05-04 09:22 | 45.47643 | 22.81776 | 26996 ft | 405 kts | 289° |
| 2026-05-04 09:22 | 45.48323 | 22.77935 | 26748 ft | 405 kts | 289° |
| 2026-05-04 09:22 | 45.49015 | 22.74025 | 26503 ft | 409 kts | 289° |
| 2026-05-04 09:23 | 45.49708 | 22.70093 | 26253 ft | 409 kts | 289° |
| 2026-05-04 09:23 | 45.50396 | 22.66172 | 25991 ft | 406 kts | 289° |
| 2026-05-04 09:23 | 45.51075 | 22.62284 | 25743 ft | 403 kts | 289° |
| 2026-05-04 09:23 | 45.52002 | 22.58559 | 25464 ft | 393 kts | 304° |
| 2026-05-04 09:25 | 45.64274 | 22.38929 | 23817 ft | 377 kts | 317° |
| 2026-05-04 09:25 | 45.66016 | 22.36188 | 23555 ft | 377 kts | 316° |
| 2026-05-04 09:26 | 45.67778 | 22.33405 | 23281 ft | 377 kts | 316° |
| 2026-05-04 09:26 | 45.69541 | 22.30617 | 23005 ft | 377 kts | 316° |
| 2026-05-04 09:26 | 45.71298 | 22.27834 | 22732 ft | 376 kts | 316° |
| 2026-05-04 09:26 | 45.73047 | 22.25061 | 22461 ft | 375 kts | 316° |
| 2026-05-04 09:27 | 45.74775 | 22.22319 | 22194 ft | 374 kts | 316° |
| 2026-05-04 09:27 | 45.76515 | 22.19555 | 21930 ft | 372 kts | 316° |
| 2026-05-04 09:27 | 45.78236 | 22.16793 | 21664 ft | 372 kts | 313° |
| 2026-05-04 09:27 | 45.79652 | 22.13673 | 21389 ft | 377 kts | 300° |
| 2026-05-04 09:28 | 45.80579 | 22.10152 | 21057 ft | 377 kts | 289° |
| 2026-05-04 09:28 | 45.81064 | 22.06467 | 20663 ft | 377 kts | 281° |
| 2026-05-04 09:28 | 45.81398 | 22.02755 | 20265 ft | 374 kts | 280° |
| 2026-05-04 09:28 | 45.81713 | 21.99058 | 19863 ft | 372 kts | 280° |
| 2026-05-04 09:29 | 45.82030 | 21.95378 | 19455 ft | 371 kts | 280° |
| 2026-05-04 09:29 | 45.82353 | 21.91716 | 19066 ft | 369 kts | 280° |
| 2026-05-04 09:29 | 45.82681 | 21.88069 | 18666 ft | 368 kts | 280° |
| 2026-05-04 09:29 | 45.83012 | 21.84433 | 18214 ft | 368 kts | 280° |
| 2026-05-04 09:30 | 45.83344 | 21.80800 | 17776 ft | 366 kts | 280° |
| 2026-05-04 09:30 | 45.83673 | 21.77194 | 17370 ft | 364 kts | 280° |
| 2026-05-04 09:30 | 45.83998 | 21.73620 | 17128 ft | 357 kts | 280° |
| 2026-05-04 09:30 | 45.84313 | 21.70139 | 16978 ft | 348 kts | 280° |
| 2026-05-04 09:31 | 45.84619 | 21.66744 | 16829 ft | 339 kts | 280° |
| 2026-05-04 09:31 | 45.84918 | 21.63420 | 16686 ft | 331 kts | 280° |
| 2026-05-04 09:31 | 45.85099 | 21.60210 | 16535 ft | 326 kts | 266° |
| 2026-05-04 09:31 | 45.84535 | 21.57098 | 16291 ft | 324 kts | 243° |
| 2026-05-04 09:32 | 45.83328 | 21.54396 | 16019 ft | 321 kts | 234° |
| 2026-05-04 09:32 | 45.82010 | 21.51821 | 15706 ft | 320 kts | 232° |
| 2026-05-04 09:34 | 45.72879 | 21.33981 | 13514 ft | 316 kts | 234° |
| 2026-05-04 09:34 | 45.71935 | 21.31158 | 13169 ft | 315 kts | 259° |
| 2026-05-04 09:34 | 45.71846 | 21.28073 | 12884 ft | 309 kts | 282° |
| 2026-05-04 09:34 | 45.72452 | 21.25169 | 12596 ft | 302 kts | 292° |
| 2026-05-04 09:35 | 45.73173 | 21.22375 | 12277 ft | 295 kts | 293° |
| 2026-05-04 09:35 | 45.73880 | 21.19642 | 11986 ft | 289 kts | 293° |
| 2026-05-04 09:35 | 45.74570 | 21.16958 | 11694 ft | 284 kts | 292° |
| 2026-05-04 09:35 | 45.75227 | 21.14353 | 11411 ft | 279 kts | 292° |
| 2026-05-04 09:37 | 45.79468 | 20.97300 | 9649 ft | 237 kts | 292° |
| 2026-05-04 09:37 | 45.80014 | 20.95094 | 9275 ft | 234 kts | 291° |
| 2026-05-04 09:38 | 45.80551 | 20.92924 | 8807 ft | 233 kts | 291° |
| 2026-05-04 09:38 | 45.81081 | 20.90793 | 8546 ft | 222 kts | 294° |
| 2026-05-04 09:38 | 45.81980 | 20.89079 | 8142 ft | 213 kts | 330° |
| 2026-05-04 09:38 | 45.83279 | 20.88525 | 8005 ft | 185 kts | 6° |
| 2026-05-04 09:39 | 45.84439 | 20.89167 | 7440 ft | 182 kts | 45° |
| 2026-05-04 09:39 | 45.85134 | 20.90733 | 6756 ft | 193 kts | 67° |
| 2026-05-04 09:39 | 45.85680 | 20.92539 | 6027 ft | 206 kts | 68° |
| 2026-05-04 09:39 | 45.86228 | 20.94435 | 5647 ft | 200 kts | 68° |
| 2026-05-04 09:40 | 45.86736 | 20.96238 | 5377 ft | 188 kts | 69° |
| 2026-05-04 09:40 | 45.87207 | 20.97923 | 5185 ft | 177 kts | 69° |
| 2026-05-04 09:40 | 45.87653 | 20.99514 | 5024 ft | 169 kts | 69° |
| 2026-05-04 09:40 | 45.88105 | 21.01127 | 4827 ft | 178 kts | 69° |
| 2026-05-04 09:41 | 45.88486 | 21.02787 | 4597 ft | 170 kts | 87° |
| 2026-05-04 09:42 | 45.86230 | 21.12961 | 3251 ft | 149 kts | 108° |
| 2026-05-04 09:43 | 45.85879 | 21.14354 | 3059 ft | 148 kts | 109° |
| 2026-05-04 09:43 | 45.85526 | 21.15746 | 2874 ft | 149 kts | 109° |
| 2026-05-04 09:43 | 45.85152 | 21.17133 | 2672 ft | 149 kts | 110° |
| 2026-05-04 09:43 | 45.84815 | 21.18534 | 2479 ft | 149 kts | 107° |
| 2026-05-04 09:44 | 45.84468 | 21.19942 | 2263 ft | 149 kts | 109° |
| 2026-05-04 09:44 | 45.84117 | 21.21335 | 2071 ft | 148 kts | 109° |
| 2026-05-04 09:44 | 45.83763 | 21.22727 | 1887 ft | 149 kts | 109° |
| 2026-05-04 09:46 | 45.81427 | 21.32023 | 376 ft | 144 kts | 108° |
| 2026-05-04 09:46 | 45.81111 | 21.33273 | 346 ft | 117 kts | 110° |
| 2026-05-04 09:46 | 45.80885 | 21.34173 | 340 ft | 72 kts | 111° |
| 2026-05-04 09:47 | 45.80788 | 21.34567 | 338 ft | 18 kts | 109° |
| 2026-05-04 09:47 | 45.80701 | 21.34659 | 337 ft | 17 kts | 199° |
| 2026-05-04 09:49 | 45.80732 | 21.34667 | 336 ft | 5 kts | 8° |
| 2026-05-04 09:49 | 45.80760 | 21.34653 | 338 ft | 5 kts | 308° |
| 2026-05-04 09:49 | 45.80780 | 21.34590 | 337 ft | 9 kts | 290° |
| 2026-05-04 09:51 | 45.80944 | 21.33940 | 347 ft | 11 kts | 290° |
| 2026-05-04 09:51 | 45.80971 | 21.33836 | 345 ft | 11 kts | 290° |
| 2026-05-04 09:51 | 45.80997 | 21.33731 | 346 ft | 12 kts | 289° |
| 2026-05-04 09:51 | 45.81003 | 21.33614 | 342 ft | 12 kts | 245° |
| 2026-05-04 09:52 | 45.80932 | 21.33549 | 346 ft | 13 kts | 198° |
| 2026-05-04 09:52 | 45.80863 | 21.33472 | 340 ft | 13 kts | 253° |
| 2026-05-04 09:52 | 45.80882 | 21.33346 | 338 ft | 13 kts | 289° |
| 2026-05-04 09:52 | 45.80912 | 21.33226 | 338 ft | 13 kts | 290° |
| 2026-05-04 09:53 | 45.80942 | 21.33109 | 337 ft | 12 kts | 290° |
| 2026-05-04 09:53 | 45.80972 | 21.32996 | 338 ft | 12 kts | 290° |
| 2026-05-04 09:53 | 45.80998 | 21.32884 | 339 ft | 12 kts | 287° |
| 2026-05-04 09:53 | 45.81025 | 21.32776 | 339 ft | 11 kts | 290° |
| 2026-05-04 09:54 | 45.81052 | 21.32673 | 338 ft | 11 kts | 290° |
| 2026-05-04 09:54 | 45.81078 | 21.32574 | 339 ft | 11 kts | 290° |
| 2026-05-04 09:54 | 45.81087 | 21.32475 | 341 ft | 10 kts | 247° |
| 2026-05-04 09:54 | 45.81059 | 21.32386 | 340 ft | 10 kts | 268° |
| 2026-05-04 09:55 | 45.81078 | 21.32294 | 338 ft | 10 kts | 289° |
| 2026-05-04 09:55 | 45.81100 | 21.32206 | 337 ft | 9 kts | 289° |
| 2026-05-04 09:55 | 45.81122 | 21.32121 | 340 ft | 9 kts | 290° |
| 2026-05-04 09:55 | 45.81147 | 21.32041 | 337 ft | 9 kts | 302° |
| 2026-05-04 09:56 | 45.81155 | 21.32022 | 338 ft | 1 kts | 299° |
| 2026-05-04 09:56 | 45.81159 | 21.32008 | 337 ft | 2 kts | 284° |
| 2026-05-04 09:56 | 45.81155 | 21.31994 | 339 ft | 2 kts | 239° |
| 2026-05-04 09:56 | 45.81146 | 21.31987 | 339 ft | 1 kts | 201° |
| 2026-05-04 09:57 | 45.81131 | 21.31979 | 340 ft | 3 kts | 197° |
| 2026-05-04 09:57 | 45.81110 | 21.31968 | 341 ft | 0 kts | 200° |
| 2026-05-04 09:57 | 45.81109 | 21.31968 | 341 ft | 0 kts | 200° |
| 2026-05-04 09:58 | 45.81108 | 21.31968 | 341 ft | 1 kts | 198° |
| 2026-05-04 09:58 | 45.81107 | 21.31967 | 341 ft | 0 kts | 199° |